Time;durP1;ratioP1;P1;durP2;ratioP2;P2;SDS_P1;SDS_P2;PMS_P1;PMS_P2;Temp;Humidity;BMP_temperature;BMP_pressure;BME280_temperature;BME280_humidity;BME280_pressure;Samples;Min_cycle;Max_cycle;Signal;HPM_P1;HPM_P2
2022/01/01 00:02:02;;;;;;;10.65;5.60;;;;;;;20.76;52.01;102159.31;5095329;28;20077;-59
2022/01/01 00:04:28;;;;;;;14.70;5.72;;;;;;;20.72;51.29;102155.19;5096070;28;20059;-59
2022/01/01 00:06:53;;;;;;;16.83;6.20;;;;;;;20.72;51.59;102155.19;5095954;28;20117;-59
2022/01/01 00:09:19;;;;;;;16.45;5.18;;;;;;;20.70;51.48;102162.69;5095858;28;20512;-58
2022/01/01 00:11:44;;;;;;;10.73;4.60;;;;;;;20.69;51.05;102169.13;5095510;28;20438;-58
2022/01/01 00:14:09;;;;;;;10.20;5.25;;;;;;;20.70;51.97;102159.94;5095577;28;20099;-58
2022/01/01 00:16:35;;;;;;;12.55;4.93;;;;;;;20.70;51.54;102168.13;5095897;28;20047;-58
2022/01/01 00:19:00;;;;;;;14.45;4.63;;;;;;;20.72;51.62;102163.34;5095399;28;20046;-59
2022/01/01 00:21:25;;;;;;;8.35;5.15;;;;;;;20.71;51.99;102158.94;5095645;28;20046;-59
2022/01/01 00:23:51;;;;;;;12.93;4.25;;;;;;;20.69;51.68;102155.50;5095165;28;20024;-59
2022/01/01 00:26:16;;;;;;;11.65;4.45;;;;;;;20.70;51.44;102152.66;5095182;28;20063;-59
2022/01/01 00:28:42;;;;;;;16.27;5.90;;;;;;;20.71;51.59;102159.81;5095884;28;20461;-58
2022/01/01 00:31:07;;;;;;;11.57;5.00;;;;;;;20.71;52.09;102154.38;5076950;28;20028;-58
2022/01/01 00:33:33;;;;;;;17.40;4.40;;;;;;;20.70;52.01;102162.69;5094668;28;20056;-59
2022/01/01 00:35:58;;;;;;;12.52;3.85;;;;;;;20.72;51.48;102166.94;5094575;28;20032;-58
2022/01/01 00:38:24;;;;;;;16.17;4.75;;;;;;;20.74;51.44;102166.81;5094939;28;20085;-58
2022/01/01 00:40:49;;;;;;;11.15;4.57;;;;;;;20.74;51.39;102164.06;5077172;28;20030;-58
2022/01/01 00:43:15;;;;;;;9.05;4.35;;;;;;;20.77;51.89;102175.47;5060608;28;20027;-58
2022/01/01 00:45:40;;;;;;;11.57;4.78;;;;;;;20.77;51.53;102169.19;5094936;28;20032;-58
2022/01/01 00:48:05;;;;;;;9.18;3.92;;;;;;;20.75;51.63;102166.63;5095314;28;20034;-58
2022/01/01 00:50:31;;;;;;;13.65;4.30;;;;;;;20.79;51.50;102161.72;5095742;28;20024;-58
2022/01/01 00:52:58;;;;;;;8.25;4.18;;;;;;;20.79;51.83;102153.53;5094472;28;20054;-58
2022/01/01 00:55:23;;;;;;;7.75;3.70;;;;;;;20.75;51.62;102144.84;5095685;28;20500;-58
2022/01/01 00:57:49;;;;;;;12.40;4.65;;;;;;;20.77;51.62;102155.56;5095313;28;20028;-58
2022/01/01 01:00:14;;;;;;;12.27;4.63;;;;;;;20.76;51.09;102151.13;5095411;28;20028;-59
2022/01/01 01:02:40;;;;;;;16.02;4.45;;;;;;;20.74;51.29;102156.72;5095341;28;20069;-59
2022/01/01 01:05:05;;;;;;;11.98;4.13;;;;;;;20.71;51.48;102158.94;5095421;28;20114;-58
2022/01/01 01:07:31;;;;;;;11.00;4.20;;;;;;;20.71;51.58;102158.94;5095259;28;20049;-59
2022/01/01 01:09:56;;;;;;;11.65;4.82;;;;;;;20.72;51.27;102160.63;5095292;28;20035;-59
2022/01/01 01:12:26;;;;;;;11.00;4.40;;;;;;;20.72;51.90;102161.50;5077163;28;20559;-59
2022/01/01 01:14:52;;;;;;;12.52;3.97;;;;;;;20.73;51.04;102162.34;5095219;28;20020;-57
2022/01/01 01:17:18;;;;;;;10.52;4.07;;;;;;;20.73;51.03;102170.53;5095360;28;20054;-59
2022/01/01 01:19:43;;;;;;;11.00;4.85;;;;;;;20.74;51.47;102169.53;5094834;28;20101;-58
2022/01/01 01:22:08;;;;;;;7.95;4.05;;;;;;;20.75;50.95;102171.22;5076909;28;20469;-58
2022/01/01 01:24:34;;;;;;;15.10;5.30;;;;;;;20.75;51.48;102165.75;5060249;28;20513;-58
2022/01/01 01:27:04;;;;;;;14.82;4.90;;;;;;;20.77;51.49;102161.03;5095174;28;20024;-59
2022/01/01 01:29:31;;;;;;;6.60;3.65;;;;;;;20.76;51.95;102156.59;5095184;28;20040;-58
2022/01/01 01:31:56;;;;;;;9.23;3.50;;;;;;;20.73;52.02;102151.47;5094725;28;20099;-58
2022/01/01 01:34:22;;;;;;;9.80;3.97;;;;;;;20.74;51.49;102159.44;5076807;28;20082;-58
2022/01/01 01:36:47;;;;;;;8.75;3.75;;;;;;;20.73;51.98;102167.81;5095037;28;20016;-58
2022/01/01 01:39:13;;;;;;;10.23;3.80;;;;;;;20.72;51.37;102171.53;5094903;28;20035;-58
2022/01/01 01:41:38;;;;;;;6.93;3.53;;;;;;;20.71;50.80;102169.84;5077288;28;20024;-58
2022/01/01 01:44:25;;;;;;;10.38;3.95;;;;;;;20.72;51.04;102174.25;5095054;28;20030;-58
2022/01/01 01:46:51;;;;;;;5.70;2.92;;;;;;;20.72;51.64;102172.38;5094945;28;20383;-58
2022/01/01 01:49:16;;;;;;;20.00;4.00;;;;;;;20.69;51.30;102160.97;5094968;28;20103;-59
2022/01/01 01:51:42;;;;;;;8.80;4.00;;;;;;;20.74;51.52;102164.91;5076607;28;20365;-58
2022/01/01 01:54:09;;;;;;;8.60;3.80;;;;;;;20.77;51.49;102174.66;5094502;28;20111;-58
2022/01/01 01:56:36;;;;;;;10.82;3.58;;;;;;;20.78;51.51;102162.72;5074986;28;20016;-58
2022/01/01 01:59:01;;;;;;;10.93;3.63;;;;;;;20.80;51.23;102163.41;5075418;28;20028;-59
2022/01/01 02:01:27;;;;;;;12.75;4.55;;;;;;;20.81;51.11;102160.53;5075773;28;20110;-58
2022/01/01 02:03:56;;;;;;;12.18;4.05;;;;;;;20.80;51.30;102169.69;5076402;28;20028;-58
2022/01/01 02:06:22;;;;;;;6.78;3.38;;;;;;;20.81;51.24;102173.28;5097828;28;20016;-58
2022/01/01 02:08:49;;;;;;;8.95;3.45;;;;;;;20.82;50.96;102175.00;5097976;28;20024;-58
2022/01/01 02:11:17;;;;;;;9.80;3.38;;;;;;;20.81;50.35;102176.00;5097663;28;20027;-59
2022/01/01 02:14:01;;;;;;;10.68;3.72;;;;;;;20.82;51.28;102169.56;5097210;28;20032;-58
2022/01/01 02:16:34;;;;;;;12.63;3.63;;;;;;;20.81;50.92;102176.88;5097536;28;20012;-58
2022/01/01 02:19:00;;;;;;;7.03;3.15;;;;;;;20.82;50.98;102188.63;5097367;28;20020;-58
2022/01/01 02:21:25;;;;;;;9.90;3.45;;;;;;;20.81;51.17;102192.34;5096869;28;20087;-58
2022/01/01 02:23:57;;;;;;;7.13;3.40;;;;;;;20.79;50.64;102188.94;5098133;28;20035;-58
2022/01/01 02:26:30;;;;;;;13.18;3.53;;;;;;;20.78;51.18;102188.09;5098138;28;20024;-58
2022/01/01 02:28:56;;;;;;;7.75;3.47;;;;;;;20.82;50.92;102188.63;5080718;28;20051;-58
2022/01/01 02:31:22;;;;;;;11.23;3.58;;;;;;;20.80;50.89;102175.16;5080203;28;20400;-58
2022/01/01 02:33:47;;;;;;;9.52;3.70;;;;;;;20.81;50.84;102181.47;5097552;28;20174;-59
2022/01/01 02:36:12;;;;;;;6.63;3.13;;;;;;;20.80;50.95;102168.84;5098001;28;20023;-58
2022/01/01 02:38:38;;;;;;;7.07;3.13;;;;;;;20.79;51.04;102164.44;5098319;28;20020;-58
2022/01/01 02:41:04;;;;;;;9.05;3.20;;;;;;;20.79;50.60;102169.88;5097994;28;20028;-58
2022/01/01 02:43:31;;;;;;;9.05;3.15;;;;;;;20.77;50.28;102171.91;5079866;28;20028;-58
2022/01/01 02:45:56;;;;;;;6.63;3.80;;;;;;;20.76;50.46;102179.22;5097841;28;20032;-58
2022/01/01 02:48:23;;;;;;;8.63;3.50;;;;;;;20.75;50.16;102179.38;5098028;28;20020;-58
2022/01/01 02:50:51;;;;;;;10.50;3.33;;;;;;;20.70;50.28;102179.03;5097970;28;20028;-58
2022/01/01 02:53:16;;;;;;;9.48;3.92;;;;;;;20.70;50.93;102184.47;5097960;28;20110;-58
2022/01/01 02:55:43;;;;;;;6.78;4.22;;;;;;;20.65;50.59;102178.66;5097612;28;20055;-61
2022/01/01 02:58:11;;;;;;;7.05;2.75;;;;;;;20.65;50.73;102184.09;5097685;28;20024;-58
2022/01/01 03:00:38;;;;;;;10.10;3.50;;;;;;;20.61;50.75;102183.56;5097943;28;20111;-58
2022/01/01 03:03:03;;;;;;;6.72;3.22;;;;;;;20.58;50.38;102177.56;5097818;28;20031;-58
2022/01/01 03:05:30;;;;;;;9.95;4.45;;;;;;;20.54;50.52;102178.94;5097655;28;20366;-58
2022/01/01 03:07:56;;;;;;;14.35;4.15;;;;;;;20.51;50.57;102179.25;5097496;28;20019;-58
2022/01/01 03:10:21;;;;;;;8.02;3.20;;;;;;;20.47;50.98;102175.13;5097153;28;20027;-58
2022/01/01 03:12:46;;;;;;;8.00;3.22;;;;;;;20.44;51.16;102173.59;5097333;28;20020;-58
2022/01/01 03:15:12;;;;;;;10.45;3.17;;;;;;;20.41;50.91;102170.34;5097049;28;20380;-58
2022/01/01 03:17:37;;;;;;;9.15;3.15;;;;;;;20.38;51.19;102159.78;5078947;28;20055;-58
2022/01/01 03:20:04;;;;;;;9.85;3.15;;;;;;;20.37;50.51;102163.50;5097089;28;20054;-59
2022/01/01 03:22:29;;;;;;;8.30;3.05;;;;;;;20.36;50.61;102159.06;5096904;28;20066;-58
2022/01/01 03:24:55;;;;;;;11.52;5.25;;;;;;;20.33;50.88;102155.66;5079012;28;20469;-58
2022/01/01 03:27:20;;;;;;;6.60;2.80;;;;;;;20.36;50.86;102156.34;5096796;28;20050;-58
2022/01/01 03:29:45;;;;;;;6.93;3.53;;;;;;;20.32;50.51;102142.22;5097083;28;20131;-58
2022/01/01 03:32:11;;;;;;;11.05;4.25;;;;;;;20.32;50.66;102147.66;5096799;28;20048;-58
2022/01/01 03:34:36;;;;;;;9.93;3.55;;;;;;;20.31;51.05;102144.09;5096685;28;20103;-59
2022/01/01 03:37:02;;;;;;;5.38;2.58;;;;;;;20.32;50.86;102145.78;5097103;28;20024;-58
2022/01/01 03:39:27;;;;;;;5.38;3.00;;;;;;;20.36;50.68;102154.47;5096976;28;20031;-58
2022/01/01 03:41:53;;;;;;;5.95;2.42;;;;;;;20.37;50.85;102139.88;5096702;28;20670;-58
2022/01/01 03:44:18;;;;;;;6.78;2.88;;;;;;;20.41;50.54;102151.28;5096634;28;20496;-58
2022/01/01 03:46:44;;;;;;;7.38;3.03;;;;;;;20.40;50.96;102145.00;5096349;28;20020;-58
2022/01/01 03:49:09;;;;;;;6.68;3.03;;;;;;;20.42;50.74;102150.25;5078532;28;20107;-59
2022/01/01 03:51:34;;;;;;;4.78;2.78;;;;;;;20.41;51.26;102151.28;5096103;28;20111;-58
2022/01/01 03:54:00;;;;;;;9.80;3.03;;;;;;;20.39;50.69;102143.28;5095944;28;20028;-58
2022/01/01 03:56:25;;;;;;;6.90;3.33;;;;;;;20.42;50.55;102140.22;5096299;28;20380;-58
2022/01/01 03:58:50;;;;;;;10.23;2.67;;;;;;;20.43;50.69;102135.66;5096037;28;20027;-59
2022/01/01 04:01:16;;;;;;;7.45;3.25;;;;;;;20.42;51.38;102136.66;5095823;28;20028;-59
2022/01/01 04:03:41;;;;;;;10.07;2.80;;;;;;;20.41;50.58;102140.41;5095716;28;20024;-58
2022/01/01 04:06:07;;;;;;;7.03;2.70;;;;;;;20.41;50.53;102143.97;5096308;28;20074;-58
2022/01/01 04:08:32;;;;;;;12.10;3.90;;;;;;;20.39;50.76;102143.28;5096147;28;20484;-58
2022/01/01 04:10:57;;;;;;;8.43;2.67;;;;;;;20.42;51.01;102152.97;5096525;28;20393;-58
2022/01/01 04:13:23;;;;;;;11.88;2.72;;;;;;;20.42;50.51;102151.13;5096380;28;20024;-59
2022/01/01 04:15:49;;;;;;;8.02;2.88;;;;;;;20.44;50.99;102153.66;5096169;28;20424;-58
2022/01/01 04:18:25;;;;;;;15.52;3.78;;;;;;;20.43;49.94;102144.69;5077681;28;20027;-58
2022/01/01 04:20:50;;;;;;;7.45;2.83;;;;;;;20.41;50.80;102152.13;5096207;28;20020;-59
2022/01/01 04:23:15;;;;;;;6.85;3.13;;;;;;;20.40;51.06;102152.28;5077924;28;20028;-58
2022/01/01 04:25:41;;;;;;;6.15;2.35;;;;;;;20.38;50.59;102146.16;5095748;28;20020;-57
2022/01/01 04:28:06;;;;;;;5.97;2.55;;;;;;;20.40;51.31;102155.03;5095027;28;20028;-58
2022/01/01 04:30:32;;;;;;;5.53;2.30;;;;;;;20.38;50.40;102148.88;5095591;28;20103;-57
2022/01/01 04:32:57;;;;;;;8.38;2.55;;;;;;;20.38;50.30;102148.88;5095077;28;20113;-58
2022/01/01 04:35:23;;;;;;;8.48;2.58;;;;;;;20.38;50.92;102152.44;5095588;28;20031;-58
2022/01/01 04:37:49;;;;;;;6.80;2.95;;;;;;;20.38;50.23;102148.88;5095615;28;20024;-59
2022/01/01 04:40:15;;;;;;;6.00;2.38;;;;;;;20.41;50.57;102159.47;5095494;28;20030;-58
2022/01/01 04:42:40;;;;;;;12.80;2.75;;;;;;;20.43;50.92;102149.25;5095390;28;20088;-58
2022/01/01 04:45:06;;;;;;;12.75;2.70;;;;;;;20.41;50.50;102159.47;5095427;28;20471;-58
2022/01/01 04:47:31;;;;;;;5.75;2.22;;;;;;;20.39;50.56;102158.75;5095150;28;20026;-58
2022/01/01 04:49:57;;;;;;;10.20;2.80;;;;;;;20.38;50.48;102151.63;5095626;28;20026;-58
2022/01/01 04:52:22;;;;;;;6.07;2.33;;;;;;;20.37;50.35;102155.34;5095389;28;20519;-58
2022/01/01 04:54:48;;;;;;;5.82;2.05;;;;;;;20.37;50.66;102167.09;5111203;28;20023;-59
2022/01/01 04:57:13;;;;;;;7.63;2.63;;;;;;;20.37;50.41;102167.09;5095355;28;20035;-58
2022/01/01 04:59:40;;;;;;;6.78;1.95;;;;;;;20.33;50.38;102154.78;5095077;28;20020;-58
2022/01/01 05:02:06;;;;;;;8.55;2.72;;;;;;;20.33;50.14;102166.53;5095604;28;20073;-58
2022/01/01 05:04:32;;;;;;;6.05;2.17;;;;;;;20.33;50.20;102162.97;5094986;28;20081;-59
2022/01/01 05:06:57;;;;;;;12.93;3.40;;;;;;;20.28;51.08;102163.44;5077482;28;20103;-58
2022/01/01 05:09:23;;;;;;;5.50;2.60;;;;;;;20.31;50.45;102165.84;5076595;28;20024;-58
2022/01/01 05:11:49;;;;;;;6.03;2.40;;;;;;;20.31;50.55;102159.56;5095134;28;20444;-58
2022/01/01 05:14:15;;;;;;;6.82;2.50;;;;;;;20.32;50.61;102169.44;5060173;28;20028;-59
2022/01/01 05:16:40;;;;;;;6.15;2.72;;;;;;;20.28;50.66;102159.88;5094527;28;20034;-59
2022/01/01 05:19:06;;;;;;;7.20;2.20;;;;;;;20.29;50.12;102158.88;5094808;28;20024;-64
2022/01/01 05:21:34;;;;;;;7.05;2.47;;;;;;;20.25;50.09;102158.31;5094861;28;20081;-57
2022/01/01 05:24:00;;;;;;;12.30;2.42;;;;;;;20.25;50.20;102168.34;5076622;28;20035;-58
2022/01/01 05:26:25;;;;;;;6.93;2.17;;;;;;;20.22;50.42;102174.06;5094899;28;20024;-58
2022/01/01 05:28:51;;;;;;;11.63;2.72;;;;;;;20.23;50.80;102170.34;5094446;28;20119;-58
2022/01/01 05:31:19;;;;;;;7.53;2.40;;;;;;;20.22;49.94;102165.91;5094773;28;20024;-58
2022/01/01 05:33:48;;;;;;;3.97;2.13;;;;;;;20.19;50.49;102164.38;5094551;28;20187;-58
2022/01/01 05:36:14;;;;;;;9.75;2.47;;;;;;;20.23;49.94;102173.94;5094877;28;20032;-58
2022/01/01 05:38:44;;;;;;;9.30;2.85;;;;;;;20.25;50.18;102180.09;5076222;28;20042;-59
2022/01/01 05:41:09;;;;;;;6.38;2.15;;;;;;;20.28;50.39;102176.19;5094874;28;20553;-59
2022/01/01 05:43:35;;;;;;;4.63;1.80;;;;;;;20.28;49.81;102163.44;5094315;28;20035;-58
2022/01/01 05:46:01;;;;;;;6.45;2.17;;;;;;;20.28;49.79;102166.19;5094896;28;20072;-59
2022/01/01 05:48:27;;;;;;;8.98;2.10;;;;;;;20.28;50.44;102163.44;5076609;28;20392;-58
2022/01/01 05:50:52;;;;;;;8.27;2.40;;;;;;;20.29;49.86;102165.19;5094528;28;20032;-59
2022/01/01 05:53:19;;;;;;;11.25;2.22;;;;;;;20.29;49.79;102162.44;5076856;28;20377;-59
2022/01/01 05:55:44;;;;;;;9.30;2.05;;;;;;;20.29;50.02;102158.88;5094658;28;20044;-58
2022/01/01 05:58:10;;;;;;;7.00;1.75;;;;;;;20.30;49.85;102166.84;5094498;28;20453;-59
2022/01/01 06:00:35;;;;;;;7.00;1.90;;;;;;;20.31;50.21;102163.13;5094361;28;20028;-58
2022/01/01 06:03:01;;;;;;;8.40;1.98;;;;;;;20.27;49.88;102164.47;5093786;28;20020;-59
2022/01/01 06:05:27;;;;;;;3.80;1.90;;;;;;;20.28;49.45;102179.78;5094416;28;20056;-58
2022/01/01 06:07:54;;;;;;;4.68;1.75;;;;;;;20.28;49.71;102185.22;5094503;28;20028;-59
2022/01/01 06:10:20;;;;;;;5.20;3.25;;;;;;;20.29;50.08;102186.09;5094309;28;20020;-58
2022/01/01 06:12:45;;;;;;;11.52;2.50;;;;;;;20.28;50.38;102185.22;5094583;28;20449;-57
2022/01/01 06:15:10;;;;;;;6.38;2.38;;;;;;;20.28;50.26;102196.13;5076296;28;20023;-57
2022/01/01 06:17:36;;;;;;;5.30;2.38;;;;;;;20.28;50.13;102196.13;5094414;28;20056;-58
2022/01/01 06:20:02;;;;;;;7.50;2.25;;;;;;;20.28;50.39;102193.38;5094003;28;20039;-58
2022/01/01 06:22:28;;;;;;;4.93;2.00;;;;;;;20.26;49.96;102194.56;5094041;28;20032;-57
2022/01/01 06:24:53;;;;;;;7.40;2.72;;;;;;;20.22;50.17;102185.81;5093966;28;20024;-58
2022/01/01 06:27:18;;;;;;;8.82;2.20;;;;;;;20.18;49.56;102184.41;5094131;28;20028;-58
2022/01/01 06:29:45;;;;;;;10.05;1.83;;;;;;;20.23;49.88;102189.41;5094644;28;20248;-58
2022/01/01 06:32:11;;;;;;;5.75;2.17;;;;;;;20.21;50.27;102184.09;5094043;28;20035;-58
2022/01/01 06:34:36;;;;;;;4.05;2.17;;;;;;;20.21;49.95;102194.16;5094438;28;20028;-58
2022/01/01 06:37:02;;;;;;;4.88;2.10;;;;;;;20.18;49.74;102189.84;5094044;28;20021;-58
2022/01/01 06:39:27;;;;;;;2.78;1.90;;;;;;;20.19;50.08;102175.25;5094266;28;20039;-59
2022/01/01 06:41:52;;;;;;;3.30;1.80;;;;;;;20.16;50.25;102170.13;5094145;28;20464;-57
2022/01/01 06:44:18;;;;;;;6.38;2.08;;;;;;;20.19;49.70;102177.13;5093999;28;20028;-58
2022/01/01 06:46:43;;;;;;;5.00;2.45;;;;;;;20.18;49.26;102184.41;5093545;28;20028;-57
2022/01/01 06:49:08;;;;;;;6.68;2.72;;;;;;;20.15;49.89;102183.91;5094365;28;20060;-58
2022/01/01 06:51:34;;;;;;;6.50;2.72;;;;;;;20.12;49.72;102178.78;5095384;28;20050;-58
2022/01/01 06:53:59;;;;;;;4.35;1.92;;;;;;;20.11;50.36;102177.91;5097518;28;20099;-58
2022/01/01 06:56:25;;;;;;;8.75;2.67;;;;;;;20.10;50.31;102187.06;5097765;28;20387;-58
2022/01/01 06:58:50;;;;;;;3.85;1.70;;;;;;;20.08;50.31;102183.66;5097478;28;20020;-58
2022/01/01 07:01:15;;;;;;;6.15;2.42;;;;;;;20.07;49.83;102173.78;5097241;28;20473;-58
2022/01/01 07:03:41;;;;;;;6.75;2.38;;;;;;;20.07;49.83;102181.13;5097535;28;20468;-58
2022/01/01 07:06:06;;;;;;;4.25;1.98;;;;;;;20.08;49.71;102177.38;5079287;28;20468;-58
2022/01/01 07:08:31;;;;;;;6.18;2.22;;;;;;;20.04;49.64;102176.00;5097365;28;20131;-58
2022/01/01 07:10:56;;;;;;;8.48;2.88;;;;;;;20.02;50.01;102178.00;5097365;28;20437;-58
2022/01/01 07:13:22;;;;;;;7.18;2.10;;;;;;;20.02;49.66;102178.00;5097290;28;20024;-58
2022/01/01 07:15:48;;;;;;;5.38;2.38;;;;;;;20.01;49.92;102171.72;5097355;28;20043;-58
2022/01/01 07:18:13;;;;;;;11.27;2.97;;;;;;;19.98;49.88;102174.75;5079064;28;20032;-58
2022/01/01 07:20:38;;;;;;;11.55;2.75;;;;;;;19.95;49.69;102172.34;5079215;28;20384;-58
2022/01/01 07:23:04;;;;;;;3.78;2.33;;;;;;;19.96;49.82;102178.66;5097242;28;20530;-58
2022/01/01 07:25:29;;;;;;;8.25;2.70;;;;;;;19.93;49.61;102185.25;5097027;28;20028;-57
2022/01/01 07:27:55;;;;;;;7.90;2.85;;;;;;;19.89;50.02;102172.97;5097065;28;20525;-59
2022/01/01 07:30:20;;;;;;;12.05;3.05;;;;;;;19.91;50.10;102192.69;5097185;28;20396;-59
2022/01/01 07:32:47;;;;;;;5.20;2.65;;;;;;;19.91;49.91;102195.41;5097076;28;20044;-58
2022/01/01 07:35:14;;;;;;;9.18;3.10;;;;;;;19.89;50.25;102210.19;5097157;28;20061;-58
2022/01/01 07:37:39;;;;;;;9.77;3.30;;;;;;;19.90;50.88;102211.91;5095737;28;20020;-58
2022/01/01 07:40:07;;;;;;;7.53;3.22;;;;;;;19.86;50.28;102211.34;5097156;28;20054;-58
2022/01/01 07:42:33;;;;;;;4.47;2.83;;;;;;;19.81;49.83;102213.69;5096836;28;20051;-58
2022/01/01 07:44:59;;;;;;;7.13;3.05;;;;;;;19.80;49.91;102220.13;5097054;28;20032;-58
2022/01/01 07:47:25;;;;;;;7.70;2.70;;;;;;;19.79;49.92;102214.88;5096754;28;20038;-58
2022/01/01 07:49:50;;;;;;;5.00;2.85;;;;;;;19.77;49.94;102221.31;5096955;28;20028;-58
2022/01/01 07:52:15;;;;;;;9.63;2.88;;;;;;;19.75;49.74;102219.75;5096994;28;20032;-58
2022/01/01 07:54:40;;;;;;;8.82;2.30;;;;;;;19.74;49.88;102212.59;5096865;28;20023;-58
2022/01/01 07:57:06;;;;;;;12.02;3.00;;;;;;;19.70;49.39;102211.22;5097080;28;20069;-58
2022/01/01 07:59:31;;;;;;;5.00;2.40;;;;;;;19.63;50.24;102201.94;5096852;28;20024;-58
2022/01/01 08:01:56;;;;;;;3.42;2.47;;;;;;;19.65;49.88;102213.53;5096609;28;20388;-58
2022/01/01 08:04:22;;;;;;;7.70;2.70;;;;;;;19.65;49.86;102205.38;5096837;28;20103;-58
2022/01/01 08:06:47;;;;;;;7.65;3.10;;;;;;;19.66;49.84;102210.66;5096944;28;20020;-58
2022/01/01 08:09:14;;;;;;;5.72;2.70;;;;;;;19.68;50.22;102216.78;5112481;28;20024;-57
2022/01/01 08:11:40;;;;;;;5.75;2.78;;;;;;;19.71;49.58;102210.19;5096246;28;20469;-58
2022/01/01 08:14:05;;;;;;;10.50;3.20;;;;;;;19.72;49.50;102210.03;5096661;28;20027;-58
2022/01/01 08:16:30;;;;;;;7.15;2.58;;;;;;;19.74;49.96;102213.44;5096672;28;20015;-57
2022/01/01 08:18:56;;;;;;;4.30;1.98;;;;;;;19.77;49.45;102217.72;5096242;28;20052;-58
2022/01/01 08:21:21;;;;;;;6.13;2.03;;;;;;;19.81;49.84;102201.97;5096319;28;20495;-59
2022/01/01 08:23:46;;;;;;;4.68;2.58;;;;;;;19.81;49.69;102218.28;5096578;28;20031;-58
2022/01/01 08:26:12;;;;;;;7.80;2.40;;;;;;;19.80;50.22;102214.69;5096464;28;20057;-59
2022/01/01 08:28:37;;;;;;;4.40;2.78;;;;;;;19.80;49.93;102206.53;5096660;28;20384;-58
2022/01/01 08:31:03;;;;;;;7.00;2.30;;;;;;;19.80;49.44;102211.13;5096352;28;20024;-59
2022/01/01 08:33:28;;;;;;;8.13;2.40;;;;;;;19.78;49.61;102208.56;5096127;28;20051;-58
2022/01/01 08:35:53;;;;;;;10.95;2.83;;;;;;;19.81;49.38;102221.84;5096227;28;20041;-58
2022/01/01 08:38:19;;;;;;;6.38;2.30;;;;;;;19.83;49.78;102211.66;5096534;28;20043;-58
2022/01/01 08:40:44;;;;;;;4.43;1.92;;;;;;;19.88;49.77;102212.06;5096164;28;20105;-58
2022/01/01 08:43:10;;;;;;;4.57;1.85;;;;;;;19.89;49.93;102211.06;5094653;28;20035;-58
2022/01/01 08:45:38;;;;;;;8.80;3.38;;;;;;;19.96;49.39;102212.13;5095623;28;20040;-58
2022/01/01 08:48:08;;;;;;;4.47;2.50;;;;;;;20.01;49.41;102211.66;5095810;28;20107;-59
2022/01/01 08:50:34;;;;;;;5.82;1.80;;;;;;;20.05;49.01;102218.50;5095575;28;20058;-58
2022/01/01 08:53:00;;;;;;;5.93;2.30;;;;;;;20.07;49.35;102216.50;5077724;28;20020;-58
2022/01/01 08:55:29;;;;;;;4.35;2.30;;;;;;;20.10;49.44;102218.91;5094820;28;20024;-58
2022/01/01 08:57:54;;;;;;;3.58;2.05;;;;;;;20.08;49.33;102210.88;5095265;28;20016;-59
2022/01/01 09:00:21;;;;;;;4.85;2.35;;;;;;;20.16;49.36;102210.94;5077111;28;20032;-58
2022/01/01 09:02:46;;;;;;;7.35;2.53;;;;;;;20.19;49.35;102218.78;5095218;28;20024;-57
2022/01/01 09:05:12;;;;;;;7.70;2.05;;;;;;;20.19;49.04;102207.91;5095108;28;20032;-59
2022/01/01 09:07:37;;;;;;;3.63;2.55;;;;;;;20.23;49.11;102213.91;5095211;28;20538;-58
2022/01/01 09:10:04;;;;;;;5.75;1.70;;;;;;;20.28;49.06;102217.88;5095089;28;20028;-58
2022/01/01 09:12:30;;;;;;;4.93;1.80;;;;;;;20.33;49.32;102220.97;5095298;28;20461;-57
2022/01/01 09:14:55;;;;;;;5.72;2.13;;;;;;;20.33;49.44;102198.34;5094355;28;20035;-58
2022/01/01 09:17:22;;;;;;;10.80;2.05;;;;;;;20.41;48.91;102208.47;5095411;28;20020;-58
2022/01/01 09:19:48;;;;;;;4.38;1.50;;;;;;;20.43;49.26;102220.91;5095091;28;20046;-58
2022/01/01 09:22:13;;;;;;;3.20;1.77;;;;;;;20.46;48.88;102219.72;5095015;28;20476;-58
2022/01/01 09:24:39;;;;;;;6.95;1.90;;;;;;;20.49;48.91;102220.22;5110680;28;20118;-58
2022/01/01 09:27:05;;;;;;;3.53;1.67;;;;;;;20.56;48.50;102220.47;5095171;28;20039;-59
2022/01/01 09:29:30;;;;;;;5.00;2.45;;;;;;;20.62;48.57;102215.22;5095303;28;20425;-59
2022/01/01 09:31:56;;;;;;;4.93;2.08;;;;;;;20.61;48.69;102196.31;5095077;28;20036;-58
2022/01/01 09:34:21;;;;;;;5.15;2.25;;;;;;;20.69;48.92;102207.25;5056879;28;20036;-59
2022/01/01 09:36:49;;;;;;;5.07;2.00;;;;;;;20.75;48.68;102212.06;5074989;28;20017;-59
2022/01/01 09:39:15;;;;;;;2.95;1.52;;;;;;;20.77;48.01;102201.88;5074508;28;20028;-59
2022/01/01 09:41:42;;;;;;;4.00;1.80;;;;;;;20.80;48.36;102198.81;5074374;28;20020;-58
2022/01/01 09:44:13;;;;;;;3.15;1.50;;;;;;;20.83;48.43;102204.78;5074829;28;20024;-58
2022/01/01 09:46:40;;;;;;;6.22;1.98;;;;;;;20.86;48.34;102201.75;5074573;28;20108;-58
2022/01/01 09:49:05;;;;;;;8.02;2.08;;;;;;;20.90;48.27;102207.72;5074686;28;20489;-58
2022/01/01 09:51:31;;;;;;;3.35;1.75;;;;;;;20.93;48.34;102215.59;5055984;28;20150;-58
2022/01/01 09:53:56;;;;;;;7.78;2.72;;;;;;;20.90;48.57;102208.59;5074356;28;20081;-58
2022/01/01 09:56:21;;;;;;;3.55;1.50;;;;;;;20.92;48.39;102212.00;5057008;28;20020;-58
2022/01/01 09:58:47;;;;;;;4.60;1.42;;;;;;;20.95;48.73;102210.81;5073940;28;20020;-57
2022/01/01 10:01:12;;;;;;;7.93;1.88;;;;;;;21.00;48.11;102213.03;5073725;28;20381;-58
2022/01/01 10:03:44;;;;;;;1.92;1.38;;;;;;;21.02;48.16;102217.31;5074301;28;20436;-58
2022/01/01 10:06:14;;;;;;;6.20;1.70;;;;;;;21.07;48.24;102215.00;5074183;28;20025;-58
2022/01/01 10:08:47;;;;;;;7.72;2.45;;;;;;;21.11;48.44;102213.63;5073973;28;20027;-58
2022/01/01 10:11:17;;;;;;;7.07;1.65;;;;;;;21.07;48.26;102198.66;5073855;28;20035;-58
2022/01/01 10:13:43;;;;;;;5.25;1.90;;;;;;;21.15;47.42;102212.31;5073850;28;20032;-58
2022/01/01 10:16:09;;;;;;;4.72;1.65;;;;;;;21.14;47.90;102205.13;5055701;28;20024;-59
2022/01/01 10:18:37;;;;;;;5.18;1.40;;;;;;;21.17;48.12;102199.38;5055868;28;20497;-58
2022/01/01 10:21:12;;;;;;;5.50;1.45;;;;;;;21.17;47.79;102199.38;5073458;28;20311;-58
2022/01/01 10:23:39;;;;;;;4.85;1.80;;;;;;;21.21;47.72;102194.44;5073593;28;20024;-58
2022/01/01 10:29:17;;;;;;;3.03;1.63;;;;;;;21.31;47.89;102181.50;5077863;28;20086;-59
2022/01/01 10:32:04;;;;;;;10.40;1.77;;;;;;;21.42;47.18;102182.06;5076978;28;20024;-58
2022/01/01 10:34:35;;;;;;;3.55;1.88;;;;;;;21.55;46.98;102183.47;5076895;28;20036;-58
2022/01/01 10:37:01;;;;;;;5.50;1.77;;;;;;;21.60;47.27;102184.66;5076753;28;20031;-58
2022/01/01 10:39:28;;;;;;;5.55;1.50;;;;;;;21.61;47.53;102178.16;5058635;28;20079;-59
2022/01/01 10:41:58;;;;;;;3.70;1.25;;;;;;;21.65;47.22;102176.81;5058371;28;20024;-59
2022/01/01 10:44:40;;;;;;;4.22;1.60;;;;;;;21.78;46.88;102165.41;5076384;28;20020;-59
2022/01/01 10:47:18;;;;;;;4.38;1.30;;;;;;;21.81;46.69;102156.88;5058128;28;20024;-60
2022/01/01 10:52:27;;;;;;;2.28;1.42;;;;;;;22.10;46.85;102148.22;5058767;28;20028;-59
2022/01/01 10:55:01;;;;;;;3.50;1.42;;;;;;;22.29;46.60;102142.38;5075806;28;20039;-59
2022/01/01 10:57:28;;;;;;;4.72;1.40;;;;;;;22.34;47.31;102131.78;5075861;28;20024;-60
2022/01/01 11:00:13;;;;;;;2.88;1.38;;;;;;;22.52;46.96;102121.53;5041549;28;20109;-59
2022/01/01 11:02:42;;;;;;;4.70;1.90;;;;;;;22.77;46.24;102103.19;5075926;28;20025;-60
2022/01/01 11:05:08;;;;;;;4.38;1.65;;;;;;;23.08;46.40;102101.31;5076060;28;20507;-61
2022/01/01 11:07:35;;;;;;;3.70;1.60;;;;;;;23.32;45.99;102103.88;5075565;28;20024;-60
2022/01/01 11:10:00;;;;;;;4.30;1.85;;;;;;;23.61;45.87;102095.00;5057959;28;20496;-59
2022/01/01 11:12:27;;;;;;;5.15;1.85;;;;;;;23.88;44.76;102099.88;5057507;28;20024;-60
2022/01/01 11:14:54;;;;;;;5.13;1.33;;;;;;;24.01;44.95;102089.13;5075601;28;20021;-59
2022/01/01 11:17:20;;;;;;;3.33;1.63;;;;;;;24.08;44.89;102092.00;5041139;28;20108;-60
2022/01/01 11:19:46;;;;;;;3.42;1.83;;;;;;;24.16;45.03;102078.25;5075299;28;20028;-59
2022/01/01 11:22:13;;;;;;;5.07;1.17;;;;;;;24.33;44.60;102082.50;5075380;28;20024;-60
2022/01/01 11:24:40;;;;;;;4.82;1.77;;;;;;;24.54;44.53;102090.81;5075275;28;20515;-59
2022/01/01 11:27:06;;;;;;;4.00;1.40;;;;;;;24.73;44.10;102084.78;5075163;28;20389;-60